createdAt,value
2023-03-31T00:01:01.598Z,5.50
2023-03-31T00:03:28.626Z,4.47
2023-03-31T00:05:58.207Z,4.37
2023-03-31T00:08:25.805Z,4.57
2023-03-31T00:10:52.570Z,4.03
2023-03-31T00:13:19.195Z,4.67
2023-03-31T00:15:46.124Z,4.20
2023-03-31T00:18:12.776Z,4.90
2023-03-31T00:20:39.564Z,4.70
2023-03-31T00:23:11.140Z,5.50
2023-03-31T00:25:41.904Z,5.40
2023-03-31T00:28:08.932Z,5.23
2023-03-31T00:30:35.643Z,5.63
2023-03-31T00:33:02.598Z,5.50
2023-03-31T00:35:29.800Z,5.00
2023-03-31T00:37:58.133Z,4.80
2023-03-31T00:40:25.778Z,5.30
2023-03-31T00:42:54.102Z,5.50
2023-03-31T00:45:22.695Z,6.30
2023-03-31T00:47:54.100Z,6.30
2023-03-31T00:50:22.835Z,6.20
2023-03-31T00:52:52.294Z,5.50
2023-03-31T00:55:22.799Z,6.10
2023-03-31T00:57:53.527Z,5.87
2023-03-31T01:00:22.063Z,5.50
2023-03-31T01:02:59.836Z,6.30
2023-03-31T01:05:29.027Z,6.60
2023-03-31T01:07:56.156Z,6.60
2023-03-31T01:10:23.625Z,6.43
2023-03-31T01:12:52.301Z,7.80
2023-03-31T01:15:18.884Z,7.23
2023-03-31T01:17:45.831Z,6.97
2023-03-31T01:20:31.216Z,6.50
2023-03-31T01:23:09.957Z,6.50
2023-03-31T01:25:55.594Z,6.53
2023-03-31T01:28:29.083Z,6.60
2023-03-31T01:30:59.407Z,6.40
2023-03-31T01:33:44.835Z,6.77
2023-03-31T01:36:23.752Z,6.30
2023-03-31T01:39:16.731Z,7.17
2023-03-31T01:41:57.093Z,6.60
2023-03-31T01:44:44.094Z,5.87
2023-03-31T01:47:22.845Z,6.30
2023-03-31T01:50:33.570Z,5.80
2023-03-31T01:53:19.014Z,5.60
2023-03-31T01:56:01.129Z,5.70
2023-03-31T01:58:48.275Z,6.50
2023-03-31T02:01:19.185Z,5.87
2023-03-31T02:04:08.228Z,5.53
2023-03-31T02:06:36.906Z,5.20
2023-03-31T02:09:06.467Z,4.80
2023-03-31T02:11:34.245Z,4.67
2023-03-31T02:14:01.958Z,5.17
2023-03-31T02:16:30.393Z,4.67
2023-03-31T02:19:02.663Z,4.90
2023-03-31T02:21:32.098Z,4.10
2023-03-31T02:24:01.334Z,4.07
2023-03-31T02:26:31.244Z,4.30
2023-03-31T02:28:58.536Z,3.90
2023-03-31T02:31:31.881Z,4.93
2023-03-31T02:33:58.502Z,4.20
2023-03-31T02:36:25.862Z,4.77
2023-03-31T02:38:55.948Z,3.87
2023-03-31T02:41:22.831Z,4.27
2023-03-31T02:43:49.577Z,3.90
2023-03-31T02:46:16.543Z,4.13
2023-03-31T02:48:46.119Z,3.97
2023-03-31T02:51:20.995Z,3.70
2023-03-31T02:54:06.323Z,4.27
2023-03-31T03:00:06.215Z,3.47
2023-03-31T03:02:52.503Z,4.10
2023-03-31T03:05:38.818Z,3.60
2023-03-31T03:09:01.694Z,3.73
2023-03-31T03:11:44.440Z,3.50
2023-03-31T03:14:14.953Z,3.40
2023-03-31T03:16:44.259Z,4.37
2023-03-31T03:19:17.933Z,3.70
2023-03-31T03:21:46.084Z,3.50
2023-03-31T03:24:12.695Z,3.70
2023-03-31T03:26:40.329Z,3.80
2023-03-31T03:29:07.986Z,4.87
2023-03-31T03:31:35.900Z,3.60
2023-03-31T03:37:08.919Z,3.90
2023-03-31T03:39:36.519Z,3.57
2023-03-31T03:42:04.059Z,3.23
2023-03-31T03:44:31.204Z,3.97
2023-03-31T03:46:58.079Z,3.97
2023-03-31T03:49:25.322Z,3.33
2023-03-31T03:51:53.049Z,3.60
2023-03-31T03:54:19.610Z,4.20
2023-03-31T03:56:46.820Z,3.43
2023-03-31T03:59:13.617Z,3.57
2023-03-31T04:01:40.829Z,3.30
2023-03-31T04:04:07.426Z,3.63
2023-03-31T04:06:34.130Z,3.33
2023-03-31T04:09:00.914Z,3.60
2023-03-31T04:11:30.504Z,3.80
2023-03-31T04:13:58.010Z,3.37
2023-03-31T04:16:25.524Z,3.00
2023-03-31T04:18:56.562Z,3.17
2023-03-31T04:21:23.700Z,3.60
2023-03-31T04:23:58.577Z,3.20
2023-03-31T04:26:31.445Z,3.33
2023-03-31T04:29:01.395Z,3.10
2023-03-31T04:31:30.627Z,3.43
2023-03-31T04:34:06.998Z,3.17
2023-03-31T04:36:34.007Z,3.90
2023-03-31T04:39:01.266Z,3.13
2023-03-31T04:41:28.031Z,2.87
2023-03-31T04:43:54.743Z,3.37
2023-03-31T04:46:22.343Z,2.97
2023-03-31T04:48:49.177Z,2.70
2023-03-31T04:51:16.351Z,2.87
2023-03-31T04:53:42.842Z,2.70
2023-03-31T04:56:10.053Z,3.43
2023-03-31T04:58:36.742Z,3.00
2023-03-31T05:01:03.537Z,2.97
2023-03-31T05:03:30.325Z,2.80
2023-03-31T05:05:57.051Z,2.50
2023-03-31T05:08:23.905Z,2.67
2023-03-31T05:10:50.966Z,2.70
2023-03-31T05:13:17.634Z,3.50
2023-03-31T05:15:45.365Z,2.90
2023-03-31T05:18:12.190Z,2.73
2023-03-31T05:20:39.090Z,2.43
2023-03-31T05:23:05.772Z,1.90
2023-03-31T05:25:33.436Z,3.00
2023-03-31T05:28:00.721Z,2.23
2023-03-31T05:30:27.768Z,2.03
2023-03-31T05:32:54.397Z,2.10
2023-03-31T05:35:24.058Z,2.17
2023-03-31T05:37:51.448Z,2.83
2023-03-31T05:40:18.130Z,3.20
2023-03-31T05:42:44.683Z,2.80
2023-03-31T05:45:13.855Z,3.43
2023-03-31T05:47:41.030Z,1.70
2023-03-31T05:50:09.090Z,2.27
2023-03-31T05:52:36.328Z,2.53
2023-03-31T05:55:03.634Z,2.67
2023-03-31T05:57:30.937Z,2.10
2023-03-31T05:59:57.671Z,2.30
2023-03-31T06:02:24.184Z,1.47
2023-03-31T06:04:53.007Z,2.00
2023-03-31T06:07:19.928Z,2.57
2023-03-31T06:09:46.807Z,1.80
2023-03-31T06:15:03.555Z,1.80
2023-03-31T06:17:32.428Z,2.57
2023-03-31T06:19:59.820Z,1.83
2023-03-31T06:22:26.590Z,2.27
2023-03-31T06:24:53.649Z,1.90
2023-03-31T06:27:20.440Z,1.90
2023-03-31T06:29:47.305Z,2.07
2023-03-31T06:32:15.713Z,1.80
2023-03-31T06:34:45.699Z,1.67
2023-03-31T06:37:12.758Z,2.13
2023-03-31T06:39:39.313Z,1.80
2023-03-31T06:42:07.352Z,2.50
2023-03-31T06:44:41.372Z,2.57
2023-03-31T06:47:09.175Z,1.97
2023-03-31T06:49:35.668Z,2.10
2023-03-31T06:52:03.893Z,2.10
2023-03-31T06:54:30.927Z,1.60
2023-03-31T06:56:57.485Z,2.00
2023-03-31T06:59:24.127Z,2.33
2023-03-31T07:01:51.179Z,2.30
2023-03-31T07:04:17.664Z,2.17
2023-03-31T07:06:44.125Z,2.20
2023-03-31T07:09:10.616Z,2.20
2023-03-31T07:11:37.106Z,1.77
2023-03-31T07:14:03.580Z,1.50
2023-03-31T07:16:31.407Z,2.03
2023-03-31T07:18:59.749Z,2.00
2023-03-31T07:21:26.439Z,1.90
2023-03-31T07:23:52.864Z,3.10
2023-03-31T07:26:19.344Z,2.07
2023-03-31T07:28:45.807Z,1.90
2023-03-31T07:31:16.001Z,2.20
2023-03-31T07:33:42.514Z,1.70
2023-03-31T07:36:13.428Z,2.23
2023-03-31T07:38:41.329Z,1.93
2023-03-31T07:41:15.061Z,1.40
2023-03-31T07:43:44.120Z,1.80
2023-03-31T07:46:18.441Z,1.80
2023-03-31T07:48:46.533Z,2.33
2023-03-31T07:51:14.285Z,1.70
2023-03-31T07:53:40.826Z,2.10
2023-03-31T07:56:10.268Z,2.60
2023-03-31T07:58:38.861Z,1.73
2023-03-31T08:01:05.996Z,1.50
2023-03-31T08:03:32.783Z,2.33
2023-03-31T08:05:59.293Z,2.07
2023-03-31T08:08:26.413Z,1.73
2023-03-31T08:10:52.966Z,2.23
2023-03-31T08:13:19.826Z,1.97
2023-03-31T08:15:46.530Z,1.70
2023-03-31T08:18:13.154Z,2.00
2023-03-31T08:20:39.910Z,1.63
2023-03-31T08:23:09.040Z,1.90
2023-03-31T08:25:35.517Z,1.70
2023-03-31T08:28:02.047Z,1.63
2023-03-31T08:30:28.607Z,1.90
2023-03-31T08:32:55.484Z,1.83
2023-03-31T08:35:22.434Z,2.00
2023-03-31T08:37:49.364Z,1.47
2023-03-31T08:40:18.735Z,2.13
2023-03-31T08:42:47.563Z,1.70
2023-03-31T08:45:23.576Z,1.37
2023-03-31T08:47:59.292Z,1.90
2023-03-31T08:50:28.624Z,1.70
2023-03-31T08:53:02.190Z,1.47
2023-03-31T08:55:32.406Z,1.73
2023-03-31T08:58:15.420Z,1.30
2023-03-31T09:01:05.873Z,1.80
2023-03-31T09:03:41.049Z,1.70
2023-03-31T09:06:11.655Z,1.57
2023-03-31T09:08:39.297Z,1.40
2023-03-31T09:11:31.308Z,1.70
2023-03-31T09:14:01.620Z,1.73
2023-03-31T09:16:32.092Z,1.53
2023-03-31T09:19:00.885Z,1.77
2023-03-31T09:21:29.284Z,2.50
2023-03-31T09:24:11.272Z,1.80
2023-03-31T09:26:42.782Z,1.87
2023-03-31T09:29:15.619Z,2.10
2023-03-31T09:31:43.801Z,1.63
2023-03-31T09:34:14.241Z,1.67
2023-03-31T09:36:40.773Z,2.40
2023-03-31T09:39:10.388Z,2.07
2023-03-31T09:41:37.464Z,2.07
2023-03-31T09:44:04.246Z,1.80
2023-03-31T09:46:33.942Z,1.93
2023-03-31T09:49:11.865Z,2.13
2023-03-31T09:51:41.578Z,3.20
2023-03-31T09:54:15.968Z,2.03
2023-03-31T09:56:42.556Z,2.13
2023-03-31T09:59:17.697Z,2.10
2023-03-31T10:01:47.543Z,1.43
2023-03-31T10:04:19.020Z,1.43
2023-03-31T10:06:45.959Z,1.57
2023-03-31T10:09:16.796Z,1.43
2023-03-31T10:11:54.635Z,2.23
2023-03-31T10:14:26.667Z,1.87
2023-03-31T10:16:54.286Z,1.70
2023-03-31T10:19:32.991Z,1.77
2023-03-31T10:22:02.844Z,2.80
2023-03-31T10:24:40.040Z,1.70
2023-03-31T10:27:13.964Z,1.83
2023-03-31T10:29:40.725Z,1.40
2023-03-31T10:32:18.821Z,2.17
2023-03-31T10:34:46.200Z,2.00
2023-03-31T10:37:17.122Z,1.83
2023-03-31T10:39:44.429Z,1.80
2023-03-31T10:42:11.545Z,2.30
2023-03-31T10:44:39.324Z,1.73
2023-03-31T10:47:15.761Z,1.47
2023-03-31T10:49:43.705Z,2.20
2023-03-31T10:52:21.153Z,2.17
2023-03-31T10:54:59.171Z,4.23
2023-03-31T10:57:37.017Z,2.20
2023-03-31T11:00:05.683Z,1.63
2023-03-31T11:02:51.425Z,2.03
2023-03-31T11:05:30.669Z,1.90
2023-03-31T11:08:22.041Z,1.50
2023-03-31T11:10:58.659Z,1.70
2023-03-31T11:13:44.227Z,1.63
2023-03-31T11:16:18.927Z,2.27
2023-03-31T11:19:05.508Z,2.03
2023-03-31T11:21:54.343Z,2.10
2023-03-31T11:24:44.834Z,1.70
2023-03-31T11:27:24.092Z,1.30
2023-03-31T11:29:53.373Z,1.20
2023-03-31T11:32:26.106Z,1.40
2023-03-31T11:35:08.011Z,1.83
2023-03-31T11:37:55.941Z,2.03
2023-03-31T11:40:26.164Z,1.73
2023-03-31T11:42:55.793Z,2.57
2023-03-31T11:45:26.775Z,1.70
2023-03-31T11:47:57.937Z,1.87
2023-03-31T11:50:29.194Z,1.87
2023-03-31T11:53:02.990Z,1.37
2023-03-31T11:55:31.773Z,1.20
2023-03-31T11:57:59.505Z,1.50
2023-03-31T12:00:29.254Z,1.70
2023-03-31T12:02:56.319Z,1.57
2023-03-31T12:05:25.010Z,1.33
2023-03-31T12:08:07.045Z,1.03
2023-03-31T12:10:35.524Z,1.20
2023-03-31T12:13:12.770Z,1.20
2023-03-31T12:15:41.027Z,1.50
2023-03-31T12:18:20.647Z,1.40
2023-03-31T12:20:50.955Z,1.17
2023-03-31T12:23:19.900Z,1.50
2023-03-31T12:25:50.715Z,1.27
2023-03-31T12:28:19.179Z,1.73
2023-03-31T12:30:48.154Z,1.10
2023-03-31T12:33:38.126Z,1.20
2023-03-31T12:36:11.339Z,1.27
2023-03-31T12:38:44.185Z,1.03
2023-03-31T12:41:15.824Z,0.90
2023-03-31T12:43:52.749Z,1.20
2023-03-31T12:46:33.592Z,0.97
2023-03-31T12:49:00.292Z,0.90
2023-03-31T12:51:27.218Z,1.10
2023-03-31T12:54:20.549Z,1.20
2023-03-31T12:57:03.032Z,1.27
2023-03-31T12:59:39.938Z,1.23
2023-03-31T13:02:09.942Z,1.27
2023-03-31T13:04:38.065Z,0.97
2023-03-31T13:07:11.753Z,1.47
2023-03-31T13:09:55.630Z,1.10
2023-03-31T13:12:23.834Z,1.10
2023-03-31T13:14:55.026Z,0.93
2023-03-31T13:17:30.218Z,2.37
2023-03-31T13:20:15.348Z,1.43
2023-03-31T13:22:45.901Z,1.23
2023-03-31T13:25:30.698Z,1.00
2023-03-31T13:27:59.274Z,1.50
2023-03-31T13:30:38.392Z,1.50
2023-03-31T13:33:10.214Z,1.27
2023-03-31T13:35:39.494Z,1.27
2023-03-31T13:38:18.707Z,1.37
2023-03-31T13:40:54.736Z,1.47
2023-03-31T13:43:41.412Z,1.77
2023-03-31T13:46:14.610Z,1.57
2023-03-31T13:48:50.802Z,1.50
2023-03-31T13:51:25.438Z,1.90
2023-03-31T13:53:58.738Z,2.00
2023-03-31T13:56:38.107Z,1.27
2023-03-31T13:59:15.097Z,1.30
2023-03-31T14:01:41.991Z,1.30
2023-03-31T14:04:21.593Z,1.73
2023-03-31T14:07:21.179Z,1.50
2023-03-31T14:09:52.377Z,1.30
2023-03-31T14:12:38.106Z,1.37
2023-03-31T14:15:06.557Z,1.60
2023-03-31T14:17:36.175Z,1.63
2023-03-31T14:20:11.177Z,1.20
2023-03-31T14:22:47.987Z,1.47
2023-03-31T14:25:36.160Z,1.73
2023-03-31T14:28:21.394Z,1.30
2023-03-31T14:31:07.343Z,1.73
2023-03-31T14:33:34.941Z,1.83
2023-03-31T14:36:31.564Z,2.67
2023-03-31T14:39:02.695Z,1.30
2023-03-31T14:41:30.343Z,1.40
2023-03-31T14:44:00.764Z,1.40
2023-03-31T14:46:31.906Z,1.30
2023-03-31T14:48:59.214Z,1.23
2023-03-31T14:51:30.034Z,1.47
2023-03-31T14:53:57.509Z,1.53
2023-03-31T14:56:31.485Z,1.33
2023-03-31T14:58:58.511Z,1.20
2023-03-31T15:01:28.792Z,1.33
2023-03-31T15:03:57.039Z,1.30
2023-03-31T15:06:25.233Z,1.50
2023-03-31T15:08:55.987Z,1.60
2023-03-31T15:11:23.541Z,2.53
2023-03-31T15:14:04.338Z,1.90
2023-03-31T15:16:41.617Z,1.50
2023-03-31T15:19:16.463Z,1.60
2023-03-31T15:21:44.239Z,1.70
2023-03-31T15:24:14.296Z,1.50
2023-03-31T15:26:44.019Z,2.10
2023-03-31T15:29:17.758Z,2.13
2023-03-31T15:31:44.785Z,1.60
2023-03-31T15:34:21.173Z,2.43
2023-03-31T15:36:48.066Z,2.80
2023-03-31T15:39:15.645Z,2.63
2023-03-31T15:41:42.943Z,2.20
2023-03-31T15:44:24.930Z,1.97
2023-03-31T15:46:59.567Z,1.83
2023-03-31T15:49:27.200Z,1.60
2023-03-31T15:51:55.176Z,3.50
2023-03-31T15:54:42.195Z,1.70
2023-03-31T15:57:09.754Z,2.60
2023-03-31T16:02:27.703Z,2.20
2023-03-31T16:04:56.927Z,2.57
2023-03-31T16:07:27.260Z,2.77
2023-03-31T16:10:01.525Z,2.50
2023-03-31T16:12:31.987Z,2.40
2023-03-31T16:15:19.346Z,2.13
2023-03-31T16:17:49.042Z,2.50
2023-03-31T16:20:21.891Z,2.70
2023-03-31T16:22:51.835Z,2.03
2023-03-31T16:25:20.807Z,2.80
2023-03-31T16:27:52.908Z,2.47
2023-03-31T16:30:21.083Z,4.27
2023-03-31T16:33:01.016Z,2.37
2023-03-31T16:35:56.363Z,2.07
2023-03-31T16:38:24.689Z,1.87
2023-03-31T16:40:53.271Z,1.60
2023-03-31T16:43:22.004Z,2.43
2023-03-31T16:45:49.750Z,1.67
2023-03-31T16:48:17.713Z,2.00
2023-03-31T16:50:45.580Z,2.20
2023-03-31T16:53:12.833Z,1.40
2023-03-31T16:55:39.884Z,1.40
2023-03-31T16:58:07.749Z,1.50
2023-03-31T17:00:36.423Z,1.30
2023-03-31T17:03:09.532Z,1.90
2023-03-31T17:05:41.331Z,2.40
2023-03-31T17:08:10.254Z,2.17
2023-03-31T17:10:38.171Z,2.27
2023-03-31T17:13:06.081Z,2.23
2023-03-31T17:15:36.634Z,2.00
2023-03-31T17:20:51.672Z,2.23
2023-03-31T17:23:18.741Z,2.70
2023-03-31T17:25:53.322Z,3.00
2023-03-31T17:28:20.412Z,2.53
2023-03-31T17:30:48.966Z,4.27
2023-03-31T17:33:16.806Z,3.50
2023-03-31T17:35:44.432Z,4.30
2023-03-31T17:38:14.281Z,5.23
2023-03-31T17:40:44.540Z,5.83
2023-03-31T17:43:12.872Z,6.00
2023-03-31T17:45:44.438Z,4.90
2023-03-31T17:48:16.785Z,4.90
2023-03-31T17:50:44.428Z,5.70
2023-03-31T17:53:12.202Z,4.47
2023-03-31T17:55:39.966Z,3.80
2023-03-31T17:58:13.911Z,3.30
2023-03-31T18:00:42.088Z,3.90
2023-03-31T18:03:12.306Z,3.10
2023-03-31T18:05:41.169Z,3.30
2023-03-31T18:08:08.703Z,3.50
2023-03-31T18:10:37.934Z,2.80
2023-03-31T18:13:07.301Z,3.13
2023-03-31T18:15:34.765Z,2.30
2023-03-31T18:18:02.655Z,3.23
2023-03-31T18:20:30.200Z,2.10
2023-03-31T18:22:57.860Z,3.43
2023-03-31T18:25:25.645Z,3.10
2023-03-31T18:27:53.203Z,3.00
2023-03-31T18:30:20.932Z,3.47
2023-03-31T18:32:48.372Z,4.43
2023-03-31T18:35:16.750Z,3.90
2023-03-31T18:37:44.455Z,3.83
2023-03-31T18:40:15.301Z,2.50
2023-03-31T18:42:43.009Z,3.73
2023-03-31T18:45:10.343Z,4.77
2023-03-31T18:47:38.303Z,3.47
2023-03-31T18:50:05.213Z,3.37
2023-03-31T18:52:32.249Z,4.17
2023-03-31T18:54:58.747Z,5.90
2023-03-31T18:57:25.907Z,4.37
2023-03-31T18:59:52.563Z,5.20
2023-03-31T19:02:19.326Z,5.23
2023-03-31T19:04:47.294Z,4.40
2023-03-31T19:07:14.749Z,4.70
2023-03-31T19:09:42.236Z,5.10
2023-03-31T19:12:11.222Z,3.40
2023-03-31T19:14:43.932Z,3.20
2023-03-31T19:17:14.587Z,3.30
2023-03-31T19:19:41.557Z,3.77
2023-03-31T19:22:08.309Z,4.00
2023-03-31T19:24:35.086Z,3.20
2023-03-31T19:27:03.036Z,4.13
2023-03-31T19:29:31.755Z,4.50
2023-03-31T19:31:58.708Z,4.77
2023-03-31T19:34:25.582Z,3.70
2023-03-31T19:36:54.010Z,3.40
2023-03-31T19:39:21.142Z,3.97
2023-03-31T19:41:47.794Z,4.40
2023-03-31T19:44:14.521Z,4.30
2023-03-31T19:46:41.447Z,3.73
2023-03-31T19:49:08.224Z,4.20
2023-03-31T19:51:36.217Z,3.40
2023-03-31T19:54:03.149Z,4.13
2023-03-31T19:56:33.406Z,4.30
2023-03-31T19:59:00.121Z,3.90
2023-03-31T20:01:27.368Z,4.20
2023-03-31T20:03:54.897Z,4.37
2023-03-31T20:06:25.955Z,3.83
2023-03-31T20:08:54.202Z,3.67
2023-03-31T20:11:21.119Z,3.27
2023-03-31T20:13:48.075Z,2.83
2023-03-31T20:16:17.470Z,3.20
2023-03-31T20:18:48.365Z,3.20
2023-03-31T20:21:16.773Z,2.80
2023-03-31T20:23:44.361Z,2.47
2023-03-31T20:26:12.684Z,3.17
2023-03-31T20:28:39.766Z,3.03
2023-03-31T20:31:09.420Z,3.10
2023-03-31T20:33:36.395Z,3.17
2023-03-31T20:36:06.218Z,2.20
2023-03-31T20:38:34.147Z,2.10
2023-03-31T20:41:01.366Z,2.37
2023-03-31T20:43:28.316Z,2.60
2023-03-31T20:46:00.308Z,2.80
2023-03-31T20:48:27.547Z,2.40
2023-03-31T20:50:57.870Z,2.50
2023-03-31T20:53:24.646Z,2.40
2023-03-31T20:55:52.030Z,2.63
2023-03-31T20:58:18.908Z,2.20
2023-03-31T21:00:45.860Z,2.03
2023-03-31T21:03:12.570Z,2.07
2023-03-31T21:05:43.835Z,2.50
2023-03-31T21:08:12.255Z,2.57
2023-03-31T21:10:48.170Z,2.27
2023-03-31T21:13:18.046Z,2.10
2023-03-31T21:15:48.889Z,2.27
2023-03-31T21:18:19.960Z,2.70
2023-03-31T21:20:50.649Z,3.03
2023-03-31T21:23:21.177Z,2.00
2023-03-31T21:25:53.785Z,2.73
2023-03-31T21:28:26.482Z,2.80
2023-03-31T21:30:59.823Z,2.40
2023-03-31T21:33:29.857Z,1.90
2023-03-31T21:35:59.909Z,2.53
2023-03-31T21:38:28.657Z,2.07
2023-03-31T21:40:56.278Z,2.57
2023-03-31T21:43:29.906Z,2.00
2023-03-31T21:46:00.614Z,1.90
2023-03-31T21:48:29.115Z,2.13
2023-03-31T21:51:03.931Z,2.20
2023-03-31T21:53:34.051Z,2.03
2023-03-31T21:56:05.668Z,2.03
2023-03-31T21:58:36.004Z,2.20
2023-03-31T22:01:04.222Z,1.90
2023-03-31T22:03:34.916Z,2.03
2023-03-31T22:06:05.141Z,2.00
2023-03-31T22:08:35.040Z,2.20
2023-03-31T22:11:01.626Z,1.50
2023-03-31T22:13:29.098Z,2.00
2023-03-31T22:19:57.997Z,1.90
2023-03-31T22:22:56.660Z,2.10
2023-03-31T22:25:28.911Z,2.50
2023-03-31T22:28:21.528Z,2.43
2023-03-31T22:31:39.880Z,1.30
2023-03-31T22:34:28.588Z,1.93
2023-03-31T22:37:54.344Z,2.20
2023-03-31T22:44:24.819Z,1.77
2023-03-31T22:47:53.068Z,1.63
2023-03-31T22:53:49.206Z,1.40
2023-03-31T22:56:17.995Z,1.73
2023-03-31T22:59:00.064Z,1.90
2023-03-31T23:02:04.605Z,1.90
2023-03-31T23:05:05.617Z,1.80
2023-03-31T23:07:47.767Z,2.00
2023-03-31T23:10:20.859Z,1.80
2023-03-31T23:13:14.772Z,1.60
2023-03-31T23:16:00.283Z,2.00
2023-03-31T23:18:54.793Z,1.70
2023-03-31T23:21:39.510Z,2.03
2023-03-31T23:24:37.194Z,1.63
2023-03-31T23:27:18.227Z,1.90
2023-03-31T23:30:11.326Z,2.33
2023-03-31T23:33:06.277Z,2.60
2023-03-31T23:35:39.406Z,2.27
2023-03-31T23:38:13.574Z,2.40
2023-03-31T23:40:51.712Z,2.20
2023-03-31T23:43:26.033Z,2.30
2023-03-31T23:45:58.325Z,2.20
2023-03-31T23:48:36.603Z,2.50
2023-03-31T23:51:21.689Z,3.00
2023-03-31T23:54:01.469Z,3.20
2023-03-31T23:56:44.750Z,3.40
2023-03-31T23:59:25.782Z,4.07
